الصفحة الرئيسية
METAR-TAF:

METAR-TAF

مطار :

هونيارا, جوادالكانال, جزر سولومون

دائرة عرض: 09-25S, خط طول: 160-03E, ارتفاع: 8 متر

مراقبة الطقس الحالي

تاريخ ووقت الإصدار 21 دقيقة قبل الساعة 23:00UTC
ريح 6 عقدة من الشرق/الجنوب الشرقي
درجة الحرارة 31°درجة مئوية
الرطوبة 71%
ضغط 1010 hPa
الرؤية 10 كم أو أكثر
غيوم قليلة على ارتفاع 2000 قدم
غيوم قليلة على ارتفاع 2000 قدم, مزنة ركامية.

METAR: AGGH 242300Z 11006KT 9999 FEW020 FEW020CB 31/25 Q1010

زمن: 10:21 (23:21 UTC)

توقعات

تاريخ ووقت الإصدار 3ساعات و 6 دقيقة قبل الساعة 20:15UTC
التوقعات صالحة من24 الساعة 21 UTC إلى 25 الساعة 18 UTC
ريح 10 عقدة من الجنوب الشرقي
الرؤية: 1007 متر
غيوم قليلة على ارتفاع 1600 قدم

TAF: AGGH 242015Z 2421/2518 14010KT 9999 FEW016 T 26 30 31 32 Q 1010 1010 1008 1007 TAF3

أرصاد الطقس والتوقعات من أكثر من 4000 مطار (تقارير الطقس للمطار METAR والتنبؤ بالطقس بالمطارTAF).

المحطات المتاحة هي النقط الصفراء والحمراء على الخريطة.

حرك المؤشر فوق النقطة لمعرفة اسم المحطة.

ثم انقر لمعرفة أرصاد وتوقعات الطقس.

لتغيير الخارطة: اضغط على الأزرار الخضراء مع رمز الصليب الأسود للتكبير. على الزر الأخضر مع شرطة للتصغير، أو على الأسهم الخضراء للخرائط المجاورة.


METAR-TAF: